Freeburg, Minnesota
Current Conditions -  °F | °C
As of 5:19 PM on Wednesday 26 Nov 2014 (Local Time) from KLSE Reporting Station
Light Snow Light Snow  
Wind Chill: 19°   Ceiling: 1800
Heat Index: 27°   Visibility: 2mi
Dew Point: 23°   Wind: 8mph
Humidity: 85%   Direction: 320°NW
Pressure: 30.22"   Gusts: NA
Location:  43.6028°N, 91.445°W
Report Text: KLSE 262319Z 32007KT 2SM -SN BR FEW006 OVC018 M03/M05 A3022 RMK AO2 P0001 T10281050
Loading
Personal Weather Stations






























Interactive Weather Map New forecast layout! Learn more

10-Day Weather Forecast

Advertisements
Track Severe Weather on mobile